Map

Track Data

SID SEASON NUMBER BASIN SUBBASIN NAME ISO_TIME NATURE LAT LON WMO_WIND WMO_PRES WMO_AGENCY TRACK_TYPE DIST2LAND LANDFALL IFLAG USA_AGENCY USA_ATCF_ID USA_LAT USA_LON USA_RECORD USA_STATUS USA_WIND USA_PRES USA_SSHS USA_R34_NE USA_R34_SE USA_R34_SW USA_R34_NW USA_R50_NE USA_R50_SE USA_R50_SW USA_R50_NW USA_R64_NE USA_R64_SE USA_R64_SW USA_R64_NW USA_POCI USA_ROCI USA_RMW USA_EYE TOKYO_LAT TOKYO_LON TOKYO_GRADE TOKYO_WIND TOKYO_PRES TOKYO_R50_DIR TOKYO_R50_LONG TOKYO_R50_SHORT TOKYO_R30_DIR TOKYO_R30_LONG TOKYO_R30_SHORT TOKYO_LAND CMA_LAT CMA_LON CMA_CAT CMA_WIND CMA_PRES HKO_LAT HKO_LON HKO_CAT HKO_WIND HKO_PRES NEWDELHI_LAT NEWDELHI_LON NEWDELHI_GRADE NEWDELHI_WIND NEWDELHI_PRES NEWDELHI_CI NEWDELHI_DP NEWDELHI_POCI REUNION_LAT REUNION_LON REUNION_TYPE REUNION_WIND REUNION_PRES REUNION_TNUM REUNION_CI REUNION_RMW REUNION_R34_NE REUNION_R34_SE REUNION_R34_SW REUNION_R34_NW REUNION_R50_NE REUNION_R50_SE REUNION_R50_SW REUNION_R50_NW REUNION_R64_NE REUNION_R64_SE REUNION_R64_SW REUNION_R64_NW BOM_LAT BOM_LON BOM_TYPE BOM_WIND BOM_PRES BOM_TNUM BOM_CI BOM_RMW BOM_R34_NE BOM_R34_SE BOM_R34_SW BOM_R34_NW BOM_R50_NE BOM_R50_SE BOM_R50_SW BOM_R50_NW BOM_R64_NE BOM_R64_SE BOM_R64_SW BOM_R64_NW BOM_ROCI BOM_POCI BOM_EYE BOM_POS_METHOD BOM_PRES_METHOD NADI_LAT NADI_LON NADI_CAT NADI_WIND NADI_PRES WELLINGTON_LAT WELLINGTON_LON WELLINGTON_WIND WELLINGTON_PRES DS824_LAT DS824_LON DS824_STAGE DS824_WIND DS824_PRES TD9636_LAT TD9636_LON TD9636_STAGE TD9636_WIND TD9636_PRES TD9635_LAT TD9635_LON TD9635_WIND TD9635_PRES TD9635_ROCI NEUMANN_LAT NEUMANN_LON NEUMANN_CLASS NEUMANN_WIND NEUMANN_PRES MLC_LAT MLC_LON MLC_CLASS MLC_WIND MLC_PRES USA_GUST BOM_GUST BOM_GUST_PER REUNION_GUST REUNION_GUST_PER USA_SEAHGT USA_SEARAD_NE USA_SEARAD_SE USA_SEARAD_SW USA_SEARAD_NW STORM_SPEED STORM_DIR
1983183N11251 1983 28 EP MM COSME 1983-07-02 06:00:00 TS 10.5000 -109.500 25 hurdat_epa main 1086 1083 O_________O___ hurdat_epa EP031983 10.5000 -109.500 TD 25 -1 10.5000 -109.500 1 25 4 308
1983183N11251 1983 28 EP MM COSME 1983-07-02 09:00:00 TS 10.6300 -109.669 main 1090 1079 P_________P___ EP031983 10.6275 -109.670 TD 25 -1 10.6372 -109.664 1 25 4 316
1983183N11251 1983 28 EP MM COSME 1983-07-02 12:00:00 TS 10.8000 -109.800 25 hurdat_epa main 1079 1068 O_________O___ hurdat_epa EP031983 10.8000 -109.800 TD 25 -1 10.8000 -109.800 1 25 5 334
1983183N11251 1983 28 EP MM COSME 1983-07-02 15:00:00 TS 11.0333 -109.870 main 1068 1039 P_________P___ EP031983 11.0425 -109.865 TD 25 -1 11.0058 -109.886 1 25 5 348
1983183N11251 1983 28 EP MM COSME 1983-07-02 18:00:00 TS 11.2849 -109.909 25 hurdat_epa main 1039 1020 O_________P___ hurdat_epa EP031983 11.3000 -109.900 TD 25 -1 11.2397 -109.934 1 25 5 350
1983183N11251 1983 28 EP MM COSME 1983-07-02 21:00:00 TS 11.5059 -109.954 main 1026 1007 P_________P___ EP031983 11.5150 -109.950 TD 25 -1 11.4788 -109.965 1 25 4 348
1983183N11251 1983 28 EP MM COSME 1983-07-03 00:00:00 TS 11.7000 -110.000 25 hurdat_epa main 1007 988 O_________O___ hurdat_epa EP031983 11.7000 -110.000 TD 25 -1 11.7000 -110.000 1 25 4 346
1983183N11251 1983 28 EP MM COSME 1983-07-03 03:00:00 TS 11.8600 -110.048 main 988 985 P_________P___ EP031983 11.8575 -110.043 TD 25 -1 11.8675 -110.064 1 25 3 341
1983183N11251 1983 28 EP MM COSME 1983-07-03 06:00:00 TS 12.0037 -110.109 25 hurdat_epa main 985 976 O_________P___ hurdat_epa EP031983 12.0000 -110.100 TD 25 -1 12.0150 -110.135 1 25 3 332
1983183N11251 1983 28 EP MM COSME 1983-07-03 09:00:00 TS 12.1456 -110.203 main 982 970 P_________P___ EP031983 12.1425 -110.200 TD 25 -1 12.1550 -110.214 1 25 4 328
1983183N11251 1983 28 EP MM COSME 1983-07-03 12:00:00 TS 12.3000 -110.300 25 hurdat_epa main 970 952 O_________O___ hurdat_epa EP031983 12.3000 -110.300 TD 25 -1 12.3000 -110.300 1 25 4 338
1983183N11251 1983 28 EP MM COSME 1983-07-03 15:00:00 TS 12.4807 -110.338 main 952 942 P_________P___ EP031983 12.5000 -110.343 TD 27 -1 12.4227 -110.325 1 26 4 346
1983183N11251 1983 28 EP MM COSME 1983-07-03 18:00:00 TS 12.6648 -110.392 30 hurdat_epa main 942 940 O_________P___ hurdat_epa EP031983 12.7000 -110.400 TD 30 -1 12.5593 -110.366 1 27 3 333
1983183N11251 1983 28 EP MM COSME 1983-07-03 21:00:00 TS 12.7890 -110.498 main 940 937 P_________P___ EP031983 12.8049 -110.505 TD 30 -1 12.7413 -110.475 1 28 5 318
1983183N11251 1983 28 EP MM COSME 1983-07-04 00:00:00 TS 13.0000 -110.700 30 hurdat_epa main 937 919 O_________O___ hurdat_epa EP031983 13.0000 -110.700 TD 30 -1 13.0000 -110.700 1 30 8 323
1983183N11251 1983 28 EP MM COSME 1983-07-04 03:00:00 TS 13.4415 -110.993 main 926 910 P_________P___ EP031983 13.4623 -110.968 TD 30 -1 13.3791 -111.070 1 31 12 323
1983183N11251 1983 28 EP MM COSME 1983-07-04 06:00:00 TS 13.9581 -111.441 30 hurdat_epa main 909 909 O_________P___ hurdat_epa EP031983 14.0000 -111.400 TD 30 -1 13.8324 -111.562 1 32 14 313
1983183N11251 1983 28 EP MM COSME 1983-07-04 09:00:00 TS 14.3968 -112.067 main 934 934 P_________P___ EP031983 14.4226 -112.040 TD 32 -1 14.3195 -112.148 1 33 16 303
1983183N11251 1983 28 EP MM COSME 1983-07-04 12:00:00 TS 14.8000 -112.800 35 hurdat_epa main 952 936 O_________O___ hurdat_epa EP031983 14.8000 -112.800 TS 35 0 14.8000 -112.800 2 35 16 299
1983183N11251 1983 28 EP MM COSME 1983-07-04 15:00:00 TS 15.1707 -113.534 main 936 932 P_________P___ EP031983 15.1424 -113.550 TS 35 0 15.2554 -113.483 2 35 16 298
1983183N11251 1983 28 EP MM COSME 1983-07-04 18:00:00 TS 15.5477 -114.280 35 hurdat_epa main 942 926 O_________P___ hurdat_epa EP031983 15.5000 -114.300 TS 35 0 15.6906 -114.219 2 35 16 301
1983183N11251 1983 28 EP MM COSME 1983-07-04 21:00:00 TS 16.0049 -115.004 main 932 926 P_________P___ EP031983 15.9798 -115.015 TS 35 0 16.0804 -114.970 2 35 16 302
1983183N11251 1983 28 EP MM COSME 1983-07-05 00:00:00 TS 16.4000 -115.700 35 hurdat_epa main 940 940 O_________O___ hurdat_epa EP031983 16.4000 -115.700 TS 35 0 16.4000 -115.700 2 35 14 294
1983183N11251 1983 28 EP MM COSME 1983-07-05 03:00:00 TS 16.5921 -116.364 main 971 971 P_________P___ EP031983 16.5948 -116.366 TS 35 0 16.5841 -116.360 2 33 13 284
1983183N11251 1983 28 EP MM COSME 1983-07-05 06:00:00 TS 16.7014 -116.997 35 hurdat_epa main 1008 1008 O_________P___ hurdat_epa EP031983 16.7000 -117.000 TS 35 0 16.7058 -116.990 2 32 12 281
1983183N11251 1983 28 EP MM COSME 1983-07-05 09:00:00 TS 16.8266 -117.606 main 1047 1047 P_________P___ EP031983 16.8273 -117.608 TS 32 -1 16.8246 -117.600 2 31 12 285
1983183N11251 1983 28 EP MM COSME 1983-07-05 12:00:00 TS 17.0000 -118.200 30 hurdat_epa main 1068 1065 O_________O___ hurdat_epa EP031983 17.0000 -118.200 TD 30 -1 17.0000 -118.200 1 30 12 291
1983183N11251 1983 28 EP MM COSME 1983-07-05 15:00:00 TS 17.2707 -118.797 main 1080 1080 P_________P___ EP031983 17.2704 -118.797 TD 27 -1 17.2715 -118.799 1 27 13 298
1983183N11251 1983 28 EP MM COSME 1983-07-05 18:00:00 TS 17.6000 -119.400 25 hurdat_epa main 1096 O_________O___ hurdat_epa EP031983 17.6000 -119.400 TD 25 -1 17.6000 -119.400 1 25 13 300

About IBTrACS Database

This database is a web-friendly format of International Best Track Archive for Climate Stewardship (IBTrACS), a global best track data archive curated by NOAA dating back to 1842.

Updated: 2021-11-26